Time;durP1;ratioP1;P1;durP2;ratioP2;P2;SDS_P1;SDS_P2;PMS_P1;PMS_P2;Temp;Humidity;BMP_temperature;BMP_pressure;BME280_temperature;BME280_humidity;BME280_pressure;Samples;Min_cycle;Max_cycle;Signal;HPM_P1;HPM_P2
2023/09/25 00:02:32;;;;;;;6.50;3.25;;;;;;;;;;10105620;28;20110;-83
2023/09/25 00:07:26;;;;;;;3.92;2.92;;;;;;;;;;10106393;28;20040;-84
2023/09/25 00:12:21;;;;;;;2.20;1.70;;;;;;;;;;10105200;28;20060;-84
2023/09/25 00:17:16;;;;;;;3.80;1.55;;;;;;;;;;10112898;28;20110;-84
2023/09/25 00:22:11;;;;;;;3.33;1.45;;;;;;;;;;10112351;28;20091;-84
2023/09/25 00:27:06;;;;;;;2.67;2.15;;;;;;;;;;10112973;28;20463;-84
2023/09/25 00:32:00;;;;;;;2.63;1.48;;;;;;;;;;10094418;28;20400;-84
2023/09/25 00:36:54;;;;;;;2.42;1.20;;;;;;;;;;10112932;28;20045;-84
2023/09/25 00:41:47;;;;;;;3.83;1.50;;;;;;;;;;10112957;28;20045;-84
2023/09/25 00:46:41;;;;;;;2.30;1.40;;;;;;;;;;10112656;28;20547;-85
2023/09/25 00:51:36;;;;;;;1.95;1.58;;;;;;;;;;10094673;28;20057;-84
2023/09/25 00:56:31;;;;;;;2.00;1.15;;;;;;;;;;10099896;28;20482;-84
2023/09/25 01:01:25;;;;;;;1.85;1.42;;;;;;;;;;10094226;28;20136;-84
2023/09/25 01:06:19;;;;;;;1.42;1.33;;;;;;;;;;10113182;28;20492;-84
2023/09/25 01:11:13;;;;;;;1.83;1.13;;;;;;;;;;10112811;28;20045;-84
2023/09/25 01:16:07;;;;;;;4.00;1.08;;;;;;;;;;10092987;28;20076;-84
2023/09/25 01:21:03;;;;;;;1.25;1.15;;;;;;;;;;10093148;28;20044;-84
2023/09/25 01:25:58;;;;;;;2.83;1.42;;;;;;;;;;10093782;28;20153;-84
2023/09/25 01:30:54;;;;;;;1.65;1.52;;;;;;;;;;10093469;28;20052;-83
2023/09/25 01:35:47;;;;;;;1.30;1.20;;;;;;;;;;10092348;28;20053;-84
2023/09/25 01:40:41;;;;;;;1.23;1.13;;;;;;;;;;10110884;28;20135;-84
2023/09/25 01:45:35;;;;;;;1.35;1.10;;;;;;;;;;10091758;28;20564;-84
2023/09/25 01:50:32;;;;;;;1.85;1.20;;;;;;;;;;10109348;28;20070;-84
2023/09/25 01:55:36;;;;;;;1.98;1.30;;;;;;;;;;10113187;28;20041;-84
2023/09/25 02:00:30;;;;;;;3.75;1.35;;;;;;;;;;10091464;28;20079;-84
2023/09/25 02:05:24;;;;;;;1.15;1.05;;;;;;;;;;10110527;28;20150;-84
2023/09/25 02:10:19;;;;;;;1.17;1.08;;;;;;;;;;10095175;28;20137;-84
2023/09/25 02:15:13;;;;;;;0.90;0.90;;;;;;;;;;10090082;28;20813;-84
2023/09/25 02:20:19;;;;;;;2.33;1.10;;;;;;;;;;10091118;28;20057;-84
2023/09/25 02:25:13;;;;;;;3.35;1.58;;;;;;;;;;10107222;28;20051;-84
2023/09/25 02:30:10;;;;;;;2.22;1.40;;;;;;;;;;10093554;28;20140;-83
2023/09/25 02:35:07;;;;;;;2.97;1.30;;;;;;;;;;10107048;28;20069;-83
2023/09/25 02:40:02;;;;;;;2.85;1.20;;;;;;;;;;10075832;28;20098;-84
2023/09/25 02:44:56;;;;;;;1.30;1.15;;;;;;;;;;10107055;28;20034;-84
2023/09/25 02:49:49;;;;;;;3.15;1.23;;;;;;;;;;10110610;28;20129;-84
2023/09/25 02:54:43;;;;;;;3.08;1.60;;;;;;;;;;10106919;28;20037;-83
2023/09/25 02:59:38;;;;;;;1.73;1.23;;;;;;;;;;10088292;28;20051;-84
2023/09/25 03:04:33;;;;;;;3.22;1.42;;;;;;;;;;10089112;28;20045;-84
2023/09/25 03:09:28;;;;;;;2.00;1.40;;;;;;;;;;10106780;28;20543;-84
2023/09/25 03:14:22;;;;;;;3.00;1.30;;;;;;;;;;10005668;28;2894202;-84
2023/09/25 03:19:16;;;;;;;3.80;1.38;;;;;;;;;;10107439;28;20739;-83
2023/09/25 03:24:11;;;;;;;1.40;1.05;;;;;;;;;;10107773;28;20540;-83
2023/09/25 03:29:08;;;;;;;1.90;1.60;;;;;;;;;;10109179;28;20103;-84
2023/09/25 03:34:02;;;;;;;1.15;1.02;;;;;;;;;;10106559;28;20518;-84
2023/09/25 03:38:57;;;;;;;4.25;1.70;;;;;;;;;;10091974;28;20047;-85
2023/09/25 03:43:51;;;;;;;2.15;1.20;;;;;;;;;;10106182;28;20041;-84
2023/09/25 03:48:45;;;;;;;1.15;1.05;;;;;;;;;;10105237;28;20389;-84
2023/09/25 03:53:41;;;;;;;2.03;1.73;;;;;;;;;;10088307;28;20098;-83
2023/09/25 03:58:35;;;;;;;3.47;1.38;;;;;;;;;;10090382;28;20095;-84
2023/09/25 04:03:29;;;;;;;1.92;1.08;;;;;;;;;;10106222;28;20520;-84
2023/09/25 04:08:24;;;;;;;1.40;1.30;;;;;;;;;;10105749;28;20052;-83
2023/09/25 04:13:22;;;;;;;1.15;1.05;;;;;;;;;;10107189;28;20049;-85
2023/09/25 04:18:18;;;;;;;13.02;2.03;;;;;;;;;;10106586;28;20095;-83
2023/09/25 04:23:13;;;;;;;3.15;1.63;;;;;;;;;;10106751;28;20173;-85
2023/09/25 04:28:11;;;;;;;3.03;2.00;;;;;;;;;;10107155;28;20048;-85
2023/09/25 04:33:06;;;;;;;1.85;1.70;;;;;;;;;;10109527;28;20527;-83
2023/09/25 04:38:03;;;;;;;3.78;1.55;;;;;;;;;;10118686;28;20413;-83
2023/09/25 04:42:57;;;;;;;2.00;1.58;;;;;;;;;;10112040;28;20526;-84
2023/09/25 04:47:51;;;;;;;2.50;1.70;;;;;;;;;;10119044;28;20045;-83
2023/09/25 04:52:46;;;;;;;1.85;1.73;;;;;;;;;;10105399;28;20045;-85
2023/09/25 04:57:43;;;;;;;1.50;1.20;;;;;;;;;;10105972;28;20064;-83
2023/09/25 05:02:37;;;;;;;3.47;1.30;;;;;;;;;;10111350;28;20075;-84
2023/09/25 05:07:33;;;;;;;12.10;3.08;;;;;;;;;;10113976;28;20045;-84
2023/09/25 05:12:27;;;;;;;4.32;1.60;;;;;;;;;;10113149;28;20049;-84
2023/09/25 05:17:21;;;;;;;2.33;1.45;;;;;;;;;;10112763;28;20084;-85
2023/09/25 05:22:15;;;;;;;1.83;1.40;;;;;;;;;;10110904;28;20057;-85
2023/09/25 05:27:09;;;;;;;1.33;1.23;;;;;;;;;;10128825;28;20098;-83
2023/09/25 05:32:04;;;;;;;1.30;1.20;;;;;;;;;;10118599;28;20083;-84
2023/09/25 05:36:58;;;;;;;1.80;1.48;;;;;;;;;;10111807;28;20155;-86
2023/09/25 05:41:52;;;;;;;2.70;1.42;;;;;;;;;;10142379;28;20056;-84
2023/09/25 05:46:46;;;;;;;4.13;1.88;;;;;;;;;;10135550;28;20040;-83
2023/09/25 05:51:41;;;;;;;5.28;2.38;;;;;;;;;;10143546;28;20055;-85
2023/09/25 05:56:39;;;;;;;6.50;1.87;;;;;;;;;;10132880;28;20056;-81
2023/09/25 06:01:33;;;;;;;3.60;2.33;;;;;;;;;;10142301;28;20440;-82
2023/09/25 06:06:29;;;;;;;5.47;2.53;;;;;;;;;;10136574;28;20090;-83
2023/09/25 06:11:24;;;;;;;2.78;1.65;;;;;;;;;;10143085;28;20053;-83
2023/09/25 06:16:17;;;;;;;3.28;1.65;;;;;;;;;;10142290;28;20052;-83
2023/09/25 06:21:13;;;;;;;1.58;1.45;;;;;;;;;;10135701;28;20062;-83
2023/09/25 06:26:06;;;;;;;3.70;1.67;;;;;;;;;;10142215;28;20040;-83
2023/09/25 06:31:00;;;;;;;1.45;1.30;;;;;;;;;;10142468;28;20048;-82
2023/09/25 06:35:57;;;;;;;8.68;2.22;;;;;;;;;;10125132;28;20053;-82
2023/09/25 06:40:51;;;;;;;5.22;2.42;;;;;;;;;;10142082;28;20048;-85
2023/09/25 06:45:46;;;;;;;3.08;1.90;;;;;;;;;;10141649;28;20131;-85
2023/09/25 06:50:40;;;;;;;4.05;3.05;;;;;;;;;;10129473;28;20724;-83
2023/09/25 06:55:35;;;;;;;3.85;3.30;;;;;;;;;;10130136;28;20472;-84
2023/09/25 07:00:29;;;;;;;7.55;3.80;;;;;;;;;;10143380;28;20451;-82
2023/09/25 07:05:42;;;;;;;5.65;4.70;;;;;;;;;;10116026;28;20040;-83
2023/09/25 07:10:37;;;;;;;7.70;4.95;;;;;;;;;;10142063;28;20076;-82
2023/09/25 07:15:34;;;;;;;8.77;5.25;;;;;;;;;;10143433;28;20102;-83
2023/09/25 07:20:30;;;;;;;5.30;4.32;;;;;;;;;;10140952;28;20048;-82
2023/09/25 07:25:24;;;;;;;5.22;4.43;;;;;;;;;;10142875;28;20049;-84
2023/09/25 07:30:20;;;;;;;3.47;2.30;;;;;;;;;;10129439;28;20048;-84
2023/09/25 07:35:15;;;;;;;3.42;2.25;;;;;;;;;;10106371;28;20110;-84
2023/09/25 07:40:13;;;;;;;5.43;2.45;;;;;;;;;;10105301;28;20492;-85
2023/09/25 07:45:11;;;;;;;5.07;2.30;;;;;;;;;;10113905;28;20060;-85
2023/09/25 07:50:10;;;;;;;4.33;1.73;;;;;;;;;;10105342;28;20302;-84
2023/09/25 07:55:10;;;;;;;3.40;2.15;;;;;;;;;;10105006;28;20566;-84
2023/09/25 08:00:17;;;;;;;2.00;1.52;;;;;;;;;;10105089;28;20060;-84
2023/09/25 08:05:12;;;;;;;1.80;1.50;;;;;;;;;;10105562;28;20045;-84
2023/09/25 08:10:08;;;;;;;1.50;1.40;;;;;;;;;;10105870;28;20072;-85
2023/09/25 08:15:04;;;;;;;2.33;2.10;;;;;;;;;;10115075;28;20053;-85
2023/09/25 08:19:59;;;;;;;2.05;1.60;;;;;;;;;;10106487;28;20056;-85
2023/09/25 08:24:53;;;;;;;2.10;1.50;;;;;;;;;;10104305;28;20052;-84
2023/09/25 08:29:48;;;;;;;1.52;1.42;;;;;;;;;;10107749;28;20111;-84
2023/09/25 08:34:41;;;;;;;3.38;2.60;;;;;;;;;;10090008;28;20056;-85
2023/09/25 08:39:35;;;;;;;4.90;3.88;;;;;;;;;;10098866;28;20118;-85
2023/09/25 08:44:30;;;;;;;6.03;3.17;;;;;;;;;;10112238;28;20059;-84
2023/09/25 08:49:24;;;;;;;4.93;3.38;;;;;;;;;;10112812;28;20686;-85
2023/09/25 08:54:19;;;;;;;5.90;3.60;;;;;;;;;;10112775;28;20048;-85
2023/09/25 08:59:13;;;;;;;9.95;3.95;;;;;;;;;;10111167;28;20057;-84
2023/09/25 09:04:07;;;;;;;4.57;3.80;;;;;;;;;;10123810;28;20079;-84
2023/09/25 09:09:01;;;;;;;5.13;3.63;;;;;;;;;;10109967;28;21625;-84
2023/09/25 09:13:55;;;;;;;10.35;3.85;;;;;;;;;;10133544;28;20348;-84
2023/09/25 09:18:49;;;;;;;3.50;3.20;;;;;;;;;;10122228;28;20056;-83
2023/09/25 09:23:44;;;;;;;6.63;3.72;;;;;;;;;;10092649;28;20049;-83
2023/09/25 09:28:38;;;;;;;3.70;2.85;;;;;;;;;;10112381;28;20047;-83
2023/09/25 09:33:33;;;;;;;4.25;2.35;;;;;;;;;;10110228;28;20048;-84
2023/09/25 09:38:28;;;;;;;4.50;2.05;;;;;;;;;;10111274;28;20115;-84
2023/09/25 09:43:23;;;;;;;1.90;1.63;;;;;;;;;;10116185;28;20053;-84
2023/09/25 09:48:20;;;;;;;4.22;1.80;;;;;;;;;;10109880;28;20099;-84
2023/09/25 09:53:14;;;;;;;2.40;1.67;;;;;;;;;;10110475;28;20404;-83
2023/09/25 09:58:10;;;;;;;2.88;1.90;;;;;;;;;;10091165;28;20510;-83
2023/09/25 10:03:05;;;;;;;5.07;2.20;;;;;;;;;;10109665;28;20557;-84
2023/09/25 10:08:06;;;;;;;3.25;1.85;;;;;;;;;;10100328;28;20052;-83
2023/09/25 10:13:10;;;;;;;2.92;1.52;;;;;;;;;;10108203;28;20114;-84
2023/09/25 10:18:06;;;;;;;2.22;1.60;;;;;;;;;;10106847;28;20139;-84
2023/09/25 10:23:10;;;;;;;2.00;1.50;;;;;;;;;;10108380;28;20075;-84
2023/09/25 10:28:05;;;;;;;5.63;2.22;;;;;;;;;;10109623;28;20049;-85
2023/09/25 10:33:00;;;;;;;2.58;2.03;;;;;;;;;;10107056;28;20144;-85
2023/09/25 10:38:25;;;;;;;3.78;2.00;;;;;;;;;;10116710;28;20045;-85
2023/09/25 10:43:23;;;;;;;3.00;2.67;;;;;;;;;;10093280;28;20411;-85
2023/09/25 10:48:17;;;;;;;3.80;2.17;;;;;;;;;;10119731;28;20458;-85
2023/09/25 10:53:12;;;;;;;2.88;2.38;;;;;;;;;;10107479;28;20067;-84
2023/09/25 10:58:07;;;;;;;5.78;2.75;;;;;;;;;;10113670;28;20083;-85
2023/09/25 11:03:02;;;;;;;4.50;3.15;;;;;;;;;;10108787;28;20067;-85
2023/09/25 11:07:57;;;;;;;4.28;3.10;;;;;;;;;;10105137;28;20580;-85
2023/09/25 11:12:52;;;;;;;3.42;2.53;;;;;;;;;;10106546;28;20480;-86
2023/09/25 11:17:47;;;;;;;4.20;2.25;;;;;;;;;;10106583;28;20056;-84
2023/09/25 11:22:43;;;;;;;4.88;2.20;;;;;;;;;;10106654;28;20067;-85
2023/09/25 11:27:52;;;;;;;5.70;2.05;;;;;;;;;;10116890;28;20756;-86
2023/09/25 11:33:08;;;;;;;1.95;1.60;;;;;;;;;;10111917;28;20114;-84
2023/09/25 11:38:12;;;;;;;2.63;1.77;;;;;;;;;;10125333;28;20143;-86
2023/09/25 11:43:07;;;;;;;3.13;2.30;;;;;;;;;;10140058;28;20132;-85
2023/09/25 11:48:05;;;;;;;3.38;3.08;;;;;;;;;;10138823;28;20054;-85
2023/09/25 11:53:00;;;;;;;2.85;2.53;;;;;;;;;;10143108;28;20060;-86
2023/09/25 11:57:54;;;;;;;6.28;3.38;;;;;;;;;;10104893;28;20049;-85
2023/09/25 12:02:49;;;;;;;4.22;3.83;;;;;;;;;;10113009;28;20083;-85
2023/09/25 12:07:44;;;;;;;4.95;3.35;;;;;;;;;;10120324;28;20054;-86
2023/09/25 12:12:38;;;;;;;4.38;3.15;;;;;;;;;;10122966;28;20057;-86
2023/09/25 12:17:33;;;;;;;4.57;4.18;;;;;;;;;;10113214;28;20059;-85
2023/09/25 12:22:28;;;;;;;5.30;4.80;;;;;;;;;;10113967;28;20463;-84
2023/09/25 12:27:22;;;;;;;5.55;2.88;;;;;;;;;;10115140;28;20435;-86
2023/09/25 12:32:17;;;;;;;5.53;3.70;;;;;;;;;;10133266;28;20044;-85
2023/09/25 12:37:11;;;;;;;4.55;4.15;;;;;;;;;;10138195;28;20143;-84
2023/09/25 12:42:05;;;;;;;7.10;5.45;;;;;;;;;;10122438;28;20053;-84
2023/09/25 12:47:14;;;;;;;5.97;5.37;;;;;;;;;;10116845;28;20440;-85
2023/09/25 12:52:09;;;;;;;7.85;5.30;;;;;;;;;;10095428;28;20128;-85
2023/09/25 12:57:04;;;;;;;3.92;3.60;;;;;;;;;;10123177;28;20098;-85
2023/09/25 13:01:59;;;;;;;8.98;6.07;;;;;;;;;;10130782;28;20052;-84
2023/09/25 13:06:54;;;;;;;6.68;5.38;;;;;;;;;;10124083;28;20408;-85
2023/09/25 13:11:49;;;;;;;7.47;5.75;;;;;;;;;;10101311;28;20041;-86
2023/09/25 13:16:43;;;;;;;10.90;4.88;;;;;;;;;;10121155;28;20592;-85
2023/09/25 13:21:38;;;;;;;6.28;5.40;;;;;;;;;;10128344;28;20050;-86
2023/09/25 13:26:32;;;;;;;9.70;5.68;;;;;;;;;;10147049;28;20090;-85
2023/09/25 13:31:25;;;;;;;6.85;6.15;;;;;;;;;;10141663;28;20117;-84
2023/09/25 13:36:20;;;;;;;7.30;5.07;;;;;;;;;;10148016;28;20135;-85
2023/09/25 13:41:14;;;;;;;5.88;5.00;;;;;;;;;;10135044;28;20435;-87
2023/09/25 13:46:09;;;;;;;5.28;3.67;;;;;;;;;;10132504;28;20037;-86
2023/09/25 13:51:06;;;;;;;4.95;3.90;;;;;;;;;;10147515;28;20391;-85
2023/09/25 13:56:01;;;;;;;6.32;5.20;;;;;;;;;;10145010;28;20048;-85
2023/09/25 14:00:56;;;;;;;5.35;4.85;;;;;;;;;;10142299;28;20072;-85
2023/09/25 14:05:53;;;;;;;5.20;4.55;;;;;;;;;;10108501;28;20092;-83
2023/09/25 14:11:16;;;;;;;5.85;3.97;;;;;;;;;;10122152;28;20482;-84
2023/09/25 14:16:11;;;;;;;12.13;5.00;;;;;;;;;;10121673;28;20507;-85
2023/09/25 14:21:09;;;;;;;6.38;4.82;;;;;;;;;;10117739;28;20140;-87
2023/09/25 14:26:04;;;;;;;7.18;4.80;;;;;;;;;;10121471;28;20047;-85
2023/09/25 14:30:58;;;;;;;6.18;4.22;;;;;;;;;;10107734;28;20041;-84
2023/09/25 14:35:52;;;;;;;6.72;4.88;;;;;;;;;;10125566;28;20045;-84
2023/09/25 14:40:46;;;;;;;9.15;5.38;;;;;;;;;;10115296;28;20523;-85
2023/09/25 14:45:42;;;;;;;7.07;4.05;;;;;;;;;;10119365;28;20079;-83
2023/09/25 14:50:36;;;;;;;6.03;3.88;;;;;;;;;;10116308;28;20139;-84
2023/09/25 14:55:31;;;;;;;7.38;3.75;;;;;;;;;;10118529;28;20047;-84
2023/09/25 15:00:42;;;;;;;6.82;3.20;;;;;;;;;;10125392;28;20159;-85
2023/09/25 15:05:37;;;;;;;5.22;3.03;;;;;;;;;;10127588;28;20041;-85
2023/09/25 15:10:32;;;;;;;8.45;3.95;;;;;;;;;;10120518;28;20045;-86
2023/09/25 15:15:26;;;;;;;4.38;3.30;;;;;;;;;;10131057;28;20088;-85
2023/09/25 15:20:20;;;;;;;3.80;2.97;;;;;;;;;;10130365;28;20072;-84
2023/09/25 15:25:14;;;;;;;5.22;3.30;;;;;;;;;;10108925;28;20041;-85
2023/09/25 15:30:10;;;;;;;5.55;3.05;;;;;;;;;;10090665;28;20044;-85
2023/09/25 15:35:06;;;;;;;13.70;4.18;;;;;;;;;;10127072;28;20080;-83
2023/09/25 15:40:00;;;;;;;4.57;3.63;;;;;;;;;;10106081;28;20048;-83
2023/09/25 15:44:54;;;;;;;5.80;3.20;;;;;;;;;;10118291;28;20063;-86
2023/09/25 15:49:50;;;;;;;5.40;3.03;;;;;;;;;;10110637;28;20052;-83
2023/09/25 15:54:44;;;;;;;4.45;3.28;;;;;;;;;;10121086;28;20423;-85
2023/09/25 15:59:38;;;;;;;3.22;2.60;;;;;;;;;;10131796;28;20063;-83
2023/09/25 16:04:33;;;;;;;7.82;3.97;;;;;;;;;;10114371;28;20079;-83
2023/09/25 16:09:28;;;;;;;6.65;3.53;;;;;;;;;;10101509;28;20049;-84
2023/09/25 16:14:23;;;;;;;4.18;3.53;;;;;;;;;;10106731;28;20060;-84
2023/09/25 16:19:17;;;;;;;4.28;2.85;;;;;;;;;;10106344;28;20107;-85
2023/09/25 16:24:11;;;;;;;8.40;4.05;;;;;;;;;;10106543;28;20044;-85
2023/09/25 16:29:05;;;;;;;7.22;5.80;;;;;;;;;;10108870;28;20060;-84
2023/09/25 16:34:00;;;;;;;3.75;2.63;;;;;;;;;;10105823;28;20048;-85
2023/09/25 16:38:54;;;;;;;4.38;3.28;;;;;;;;;;10107893;28;20079;-85
2023/09/25 16:43:49;;;;;;;8.48;4.68;;;;;;;;;;10130842;28;20051;-84
2023/09/25 16:48:43;;;;;;;6.00;2.58;;;;;;;;;;10134851;28;20475;-84
2023/09/25 16:53:38;;;;;;;5.40;2.97;;;;;;;;;;10143406;28;20048;-85
2023/09/25 16:58:32;;;;;;;3.30;2.42;;;;;;;;;;10145190;28;20056;-84
2023/09/25 17:03:26;;;;;;;3.75;2.10;;;;;;;;;;10118546;28;20536;-85
2023/09/25 17:08:20;;;;;;;3.95;1.90;;;;;;;;;;10134170;28;20115;-85
2023/09/25 17:13:15;;;;;;;3.88;2.65;;;;;;;;;;10141836;28;20085;-85
2023/09/25 17:18:12;;;;;;;2.88;2.30;;;;;;;;;;10123730;28;20553;-85
2023/09/25 17:23:06;;;;;;;3.80;2.72;;;;;;;;;;10134655;28;20053;-85
2023/09/25 17:28:05;;;;;;;4.15;2.10;;;;;;;;;;10119898;28;20145;-84
2023/09/25 17:33:05;;;;;;;2.58;2.33;;;;;;;;;;10142518;28;20048;-85
2023/09/25 17:38:01;;;;;;;8.30;3.53;;;;;;;;;;10146708;28;20051;-86
2023/09/25 17:42:54;;;;;;;3.80;2.63;;;;;;;;;;10178136;28;20048;-85
2023/09/25 17:47:48;;;;;;;3.90;2.90;;;;;;;;;;10169403;28;20096;-84
2023/09/25 17:52:46;;;;;;;4.65;3.35;;;;;;;;;;10176030;28;20057;-85
2023/09/25 17:57:42;;;;;;;3.20;2.50;;;;;;;;;;10160391;28;20109;-85
2023/09/25 18:02:36;;;;;;;4.55;3.33;;;;;;;;;;10159900;28;20048;-85
2023/09/25 18:07:31;;;;;;;4.20;3.30;;;;;;;;;;10157447;28;20052;-85
2023/09/25 18:12:24;;;;;;;4.45;3.05;;;;;;;;;;10145238;28;20053;-86
2023/09/25 18:17:19;;;;;;;5.63;3.05;;;;;;;;;;10168493;28;20082;-85
2023/09/25 18:22:13;;;;;;;4.55;3.78;;;;;;;;;;10169833;28;20052;-86
2023/09/25 18:27:09;;;;;;;6.22;3.97;;;;;;;;;;10131444;28;20049;-87
2023/09/25 18:32:04;;;;;;;4.35;3.30;;;;;;;;;;10139554;28;20083;-87
2023/09/25 18:37:00;;;;;;;5.88;3.67;;;;;;;;;;10141105;28;20045;-86
2023/09/25 18:41:54;;;;;;;8.20;4.20;;;;;;;;;;10150770;28;20057;-86
2023/09/25 18:46:48;;;;;;;5.30;4.75;;;;;;;;;;10130927;28;20056;-86
2023/09/25 18:51:42;;;;;;;6.30;3.90;;;;;;;;;;10147124;28;20403;-85
2023/09/25 18:56:36;;;;;;;5.78;4.10;;;;;;;;;;10118871;28;20388;-86
2023/09/25 19:01:30;;;;;;;16.10;6.35;;;;;;;;;;10120577;28;20057;-87
2023/09/25 19:06:25;;;;;;;8.65;4.63;;;;;;;;;;10119430;28;20048;-87
2023/09/25 19:11:19;;;;;;;10.90;5.82;;;;;;;;;;10112419;28;20044;-84
2023/09/25 19:16:14;;;;;;;6.43;4.55;;;;;;;;;;10128672;28;20056;-86
2023/09/25 19:21:11;;;;;;;6.82;5.55;;;;;;;;;;10131558;28;20057;-87
2023/09/25 19:26:06;;;;;;;8.35;5.03;;;;;;;;;;10126411;28;20126;-87
2023/09/25 19:31:01;;;;;;;5.68;4.68;;;;;;;;;;10129210;28;20492;-85
2023/09/25 19:35:55;;;;;;;6.60;4.95;;;;;;;;;;10101449;28;20561;-84
2023/09/25 19:40:49;;;;;;;11.43;7.07;;;;;;;;;;10110853;28;20507;-87
2023/09/25 19:45:43;;;;;;;7.47;5.60;;;;;;;;;;10108387;28;20043;-85
2023/09/25 19:50:37;;;;;;;7.35;4.85;;;;;;;;;;10116627;28;20049;-88
2023/09/25 19:55:31;;;;;;;7.70;5.28;;;;;;;;;;10121470;28;20083;-87
2023/09/25 20:00:24;;;;;;;9.50;4.97;;;;;;;;;;10102274;28;20047;-86
2023/09/25 20:05:19;;;;;;;6.68;4.88;;;;;;;;;;10131536;28;20090;-88
2023/09/25 20:10:13;;;;;;;7.20;4.82;;;;;;;;;;10109277;28;20135;-86
2023/09/25 20:15:09;;;;;;;6.47;4.72;;;;;;;;;;10114198;28;20396;-88
2023/09/25 20:20:05;;;;;;;8.32;4.88;;;;;;;;;;10104321;28;20060;-88
2023/09/25 20:24:59;;;;;;;7.90;4.55;;;;;;;;;;10120145;28;20072;-88
2023/09/25 20:29:53;;;;;;;6.22;4.35;;;;;;;;;;10129629;28;20036;-87
2023/09/25 20:34:48;;;;;;;6.20;4.10;;;;;;;;;;10125104;28;20051;-86
2023/09/25 20:39:41;;;;;;;8.05;5.18;;;;;;;;;;10130587;28;20069;-85
2023/09/25 20:44:34;;;;;;;8.63;4.72;;;;;;;;;;10142206;28;20060;-87
2023/09/25 20:49:27;;;;;;;7.72;5.22;;;;;;;;;;10146676;28;20052;-85
2023/09/25 20:54:21;;;;;;;6.57;4.88;;;;;;;;;;10147777;28;20078;-85
2023/09/25 20:59:16;;;;;;;6.80;4.25;;;;;;;;;;10137145;28;20148;-85
2023/09/25 21:04:10;;;;;;;7.90;4.07;;;;;;;;;;10112791;28;20049;-85
2023/09/25 21:09:05;;;;;;;5.72;4.22;;;;;;;;;;10126008;28;20669;-87
2023/09/25 21:13:59;;;;;;;7.22;4.72;;;;;;;;;;10112404;28;20111;-86
2023/09/25 21:18:52;;;;;;;9.35;4.57;;;;;;;;;;10117821;28;20483;-84
2023/09/25 21:23:47;;;;;;;5.47;3.30;;;;;;;;;;10122358;28;20045;-85
2023/09/25 21:28:41;;;;;;;10.30;5.97;;;;;;;;;;10128112;28;20041;-84
2023/09/25 21:33:35;;;;;;;8.48;4.75;;;;;;;;;;10147852;28;20074;-85
2023/09/25 21:38:29;;;;;;;10.80;5.20;;;;;;;;;;10146424;28;20067;-85
2023/09/25 21:43:23;;;;;;;10.98;5.35;;;;;;;;;;10147355;28;20389;-85
2023/09/25 21:48:17;;;;;;;7.97;4.90;;;;;;;;;;10132099;28;20056;-85
2023/09/25 21:53:11;;;;;;;9.98;6.47;;;;;;;;;;10131597;28;20068;-85
2023/09/25 21:58:06;;;;;;;6.60;4.38;;;;;;;;;;10130895;28;20059;-86
2023/09/25 22:02:59;;;;;;;7.35;5.38;;;;;;;;;;10147486;28;20084;-85
2023/09/25 22:07:53;;;;;;;6.47;4.82;;;;;;;;;;10148969;28;20083;-85
2023/09/25 22:12:48;;;;;;;11.13;5.93;;;;;;;;;;10147313;28;20044;-85
2023/09/25 22:17:42;;;;;;;8.23;4.95;;;;;;;;;;10148510;28;20114;-85
2023/09/25 22:22:36;;;;;;;7.93;5.43;;;;;;;;;;10147895;28;20099;-85
2023/09/25 22:27:30;;;;;;;6.88;4.93;;;;;;;;;;10148309;28;20495;-86
2023/09/25 22:32:25;;;;;;;9.10;5.13;;;;;;;;;;10146086;28;20071;-86
2023/09/25 22:37:24;;;;;;;8.55;4.53;;;;;;;;;;10147622;28;20140;-86
2023/09/25 22:42:34;;;;;;;13.82;5.35;;;;;;;;;;10145280;28;20476;-87
2023/09/25 22:47:28;;;;;;;9.07;4.80;;;;;;;;;;10147094;28;20044;-87
2023/09/25 22:52:23;;;;;;;7.43;5.20;;;;;;;;;;10146322;28;20075;-87
2023/09/25 22:57:16;;;;;;;8.95;5.88;;;;;;;;;;10146575;28;20053;-87
2023/09/25 23:02:18;;;;;;;7.30;4.60;;;;;;;;;;10128155;28;20056;-87
2023/09/25 23:07:14;;;;;;;9.95;5.50;;;;;;;;;;10146074;28;20068;-86
2023/09/25 23:12:08;;;;;;;8.48;5.05;;;;;;;;;;10145223;28;20049;-86
2023/09/25 23:17:02;;;;;;;7.68;4.85;;;;;;;;;;10131528;28;20072;-86
2023/09/25 23:21:57;;;;;;;8.10;4.85;;;;;;;;;;10147999;28;20080;-86
2023/09/25 23:26:51;;;;;;;8.02;5.18;;;;;;;;;;10144111;28;20048;-87
2023/09/25 23:31:45;;;;;;;6.55;4.60;;;;;;;;;;10145947;28;20102;-87
2023/09/25 23:36:39;;;;;;;8.27;4.60;;;;;;;;;;10144855;28;20101;-86
2023/09/25 23:41:32;;;;;;;6.90;4.28;;;;;;;;;;10144500;28;20052;-86
2023/09/25 23:46:31;;;;;;;8.63;3.92;;;;;;;;;;10144796;28;20048;-86
2023/09/25 23:51:24;;;;;;;9.00;4.43;;;;;;;;;;10141126;28;20380;-85
2023/09/25 23:56:18;;;;;;;6.30;4.38;;;;;;;;;;10107115;28;20057;-85
